createdAt,value
2018-09-28T00:04:25.401Z,4.47
2018-09-28T00:09:17.970Z,4.63
2018-09-28T00:14:10.544Z,4.50
2018-09-28T00:19:03.145Z,5.03
2018-09-28T00:23:55.750Z,4.63
2018-09-28T00:28:48.417Z,4.63
2018-09-28T00:33:41.026Z,4.30
2018-09-28T00:38:33.655Z,5.00
2018-09-28T00:43:26.296Z,4.50
2018-09-28T00:48:18.935Z,4.10
2018-09-28T00:53:11.526Z,4.60
2018-09-28T00:58:04.152Z,4.77
2018-09-28T01:02:56.754Z,4.80
2018-09-28T01:07:49.378Z,6.30
2018-09-28T01:12:42.105Z,5.10
2018-09-28T01:17:34.701Z,5.20
2018-09-28T01:22:27.271Z,5.20
2018-09-28T01:27:20.040Z,4.60
2018-09-28T01:32:12.683Z,4.60
2018-09-28T01:37:05.307Z,4.90
2018-09-28T01:41:57.951Z,4.80
2018-09-28T01:46:50.555Z,4.70
2018-09-28T01:51:43.176Z,5.30
2018-09-28T01:56:35.791Z,5.30
2018-09-28T02:01:28.455Z,5.50
2018-09-28T02:06:21.117Z,5.30
2018-09-28T02:11:13.737Z,5.60
2018-09-28T02:16:06.418Z,5.90
2018-09-28T02:20:59.067Z,6.07
2018-09-28T02:25:51.738Z,6.03
2018-09-28T02:30:44.323Z,6.40
2018-09-28T02:35:36.923Z,6.53
2018-09-28T02:40:29.539Z,7.17
2018-09-28T02:45:22.202Z,7.10
2018-09-28T02:50:14.869Z,7.60
2018-09-28T02:55:07.544Z,7.20
2018-09-28T03:00:00.148Z,7.13
2018-09-28T03:04:52.804Z,8.10
2018-09-28T03:09:45.511Z,7.77
2018-09-28T03:14:38.123Z,6.93
2018-09-28T03:19:30.812Z,8.60
2018-09-28T03:24:23.370Z,8.33
2018-09-28T03:29:15.974Z,8.87
2018-09-28T03:34:08.632Z,8.40
2018-09-28T03:39:01.283Z,8.20
2018-09-28T03:43:53.975Z,8.57
2018-09-28T03:48:46.609Z,8.57
2018-09-28T03:53:39.207Z,8.77
2018-09-28T03:58:31.888Z,8.57
2018-09-28T04:03:24.561Z,8.70
2018-09-28T04:08:17.229Z,9.47
2018-09-28T04:13:09.836Z,8.77
2018-09-28T04:18:02.487Z,8.67
2018-09-28T04:22:55.173Z,9.27
2018-09-28T04:27:47.821Z,9.40
2018-09-28T04:32:40.429Z,9.40
2018-09-28T04:37:33.119Z,9.93
2018-09-28T04:42:25.824Z,10.23
2018-09-28T04:47:18.538Z,10.00
2018-09-28T04:52:11.187Z,9.83
2018-09-28T04:57:04.208Z,9.33
2018-09-28T05:01:56.904Z,9.97
2018-09-28T05:06:49.618Z,10.10
2018-09-28T05:11:42.630Z,9.70
2018-09-28T05:16:35.245Z,10.03
2018-09-28T05:21:27.881Z,10.40
2018-09-28T05:26:20.592Z,10.13
2018-09-28T05:31:13.343Z,9.27
2018-09-28T05:36:05.986Z,10.57
2018-09-28T05:40:58.660Z,9.20
2018-09-28T05:45:51.362Z,9.77
2018-09-28T05:50:43.987Z,9.30
2018-09-28T05:55:36.783Z,9.67
2018-09-28T06:00:36.237Z,9.47
2018-09-28T06:05:31.792Z,8.50
2018-09-28T06:10:24.386Z,8.57
2018-09-28T06:15:17.473Z,7.93
2018-09-28T06:20:10.479Z,7.63
2018-09-28T06:25:03.504Z,6.87
2018-09-28T06:29:56.562Z,4.80
2018-09-28T06:34:49.540Z,3.63
2018-09-28T06:39:42.375Z,3.00
2018-09-28T06:44:35.345Z,3.53
2018-09-28T06:50:31.579Z,2.30
2018-09-28T06:55:24.363Z,2.50
2018-09-28T07:00:17.444Z,2.10
2018-09-28T07:05:10.412Z,1.90
2018-09-28T07:10:03.162Z,2.23
2018-09-28T07:14:56.065Z,1.90
2018-09-28T07:19:48.934Z,1.87
2018-09-28T07:24:41.806Z,2.30
2018-09-28T07:29:34.649Z,2.33
2018-09-28T07:34:27.619Z,1.87
2018-09-28T07:39:20.537Z,2.77
2018-09-28T07:44:13.468Z,2.90
2018-09-28T07:49:06.685Z,2.23
2018-09-28T07:53:59.565Z,2.60
2018-09-28T07:58:52.454Z,2.57
2018-09-28T08:03:45.632Z,2.80
2018-09-28T08:08:38.603Z,2.40
2018-09-28T08:13:31.501Z,2.90
2018-09-28T08:18:24.544Z,3.33
2018-09-28T08:23:17.498Z,2.63
2018-09-28T08:28:10.376Z,3.03
2018-09-28T08:33:03.127Z,3.00
2018-09-28T08:37:55.766Z,3.57
2018-09-28T08:42:48.371Z,2.67
2018-09-28T08:47:41.144Z,3.17
2018-09-28T08:52:34.011Z,3.97
2018-09-28T08:57:26.836Z,2.63
2018-09-28T09:02:19.538Z,2.47
2018-09-28T09:07:12.139Z,3.03
2018-09-28T09:12:04.804Z,3.00
2018-09-28T09:16:57.519Z,2.63
2018-09-28T09:21:50.183Z,2.50
2018-09-28T09:26:42.848Z,2.70
2018-09-28T09:31:35.555Z,2.03
2018-09-28T09:36:28.212Z,2.77
2018-09-28T09:41:20.903Z,2.07
2018-09-28T09:46:13.527Z,2.30
2018-09-28T09:51:06.400Z,2.83
2018-09-28T09:56:01.856Z,2.30
2018-09-28T10:01:00.787Z,2.67
2018-09-28T10:05:53.458Z,2.30
2018-09-28T10:10:46.037Z,2.60
2018-09-28T10:15:38.683Z,2.13
2018-09-28T10:20:31.289Z,2.00
2018-09-28T10:25:24.163Z,2.10
2018-09-28T10:30:16.936Z,2.00
2018-09-28T10:35:09.576Z,2.23
2018-09-28T10:40:02.284Z,2.20
2018-09-28T10:44:54.903Z,1.90
2018-09-28T10:49:47.561Z,2.27
2018-09-28T10:54:40.183Z,2.03
2018-09-28T10:59:32.892Z,1.70
2018-09-28T11:04:25.766Z,1.97
2018-09-28T11:09:18.453Z,2.40
2018-09-28T11:14:11.050Z,1.97
2018-09-28T11:19:03.939Z,2.33
2018-09-28T11:23:56.506Z,2.10
2018-09-28T11:28:49.127Z,2.00
2018-09-28T11:33:41.917Z,2.03
2018-09-28T11:38:34.775Z,2.20
2018-09-28T11:43:27.468Z,1.90
2018-09-28T11:48:20.043Z,2.10
2018-09-28T11:53:12.690Z,1.93
2018-09-28T11:58:05.405Z,2.30
2018-09-28T12:02:58.278Z,2.07
2018-09-28T12:07:50.945Z,2.20
2018-09-28T12:12:44.527Z,2.00
2018-09-28T12:17:37.161Z,2.20
2018-09-28T12:22:29.812Z,1.90
2018-09-28T12:27:22.555Z,1.90
2018-09-28T12:32:15.196Z,2.10
2018-09-28T12:37:07.918Z,1.73
2018-09-28T12:42:00.536Z,2.20
2018-09-28T12:46:53.215Z,1.77
2018-09-28T12:51:45.889Z,2.27
2018-09-28T12:56:38.605Z,2.00
2018-09-28T13:01:32.335Z,1.80
2018-09-28T13:06:25.005Z,2.00
2018-09-28T13:11:17.856Z,1.60
2018-09-28T13:16:10.667Z,2.27
2018-09-28T13:21:03.461Z,1.60
2018-09-28T13:25:56.127Z,2.03
2018-09-28T13:30:48.816Z,1.80
2018-09-28T13:35:41.527Z,1.67
2018-09-28T13:40:34.174Z,1.80
2018-09-28T13:45:26.893Z,2.17
2018-09-28T13:50:19.559Z,2.07
2018-09-28T13:55:12.342Z,2.47
2018-09-28T14:00:05.778Z,1.80
2018-09-28T14:04:58.547Z,2.60
2018-09-28T14:09:51.195Z,1.83
2018-09-28T14:14:43.904Z,1.57
2018-09-28T14:19:36.565Z,2.20
2018-09-28T14:24:29.360Z,2.10
2018-09-28T14:29:22.923Z,1.90
2018-09-28T14:34:15.580Z,1.70
2018-09-28T14:39:09.153Z,1.57
2018-09-28T14:44:01.807Z,1.80
2018-09-28T14:48:54.643Z,1.83
2018-09-28T14:53:47.237Z,1.43
2018-09-28T14:58:39.930Z,1.60
2018-09-28T15:03:32.613Z,1.37
2018-09-28T15:08:25.368Z,1.70
2018-09-28T15:13:18.031Z,1.73
2018-09-28T15:18:10.917Z,1.70
2018-09-28T15:23:03.535Z,1.80
2018-09-28T15:27:56.136Z,1.80
2018-09-28T15:32:48.856Z,1.80
2018-09-28T15:37:41.520Z,2.23
2018-09-28T15:42:34.211Z,1.90
2018-09-28T15:47:28.028Z,1.97
2018-09-28T15:52:21.569Z,1.70
2018-09-28T15:57:14.360Z,2.07
2018-09-28T16:02:07.483Z,1.93
2018-09-28T16:07:00.288Z,1.70
2018-09-28T16:11:52.956Z,2.33
2018-09-28T16:16:45.737Z,2.60
2018-09-28T16:21:38.494Z,2.13
2018-09-28T16:26:31.138Z,2.10
2018-09-28T16:31:23.850Z,1.90
2018-09-28T16:36:16.571Z,1.97
2018-09-28T16:41:09.378Z,1.97
2018-09-28T16:46:02.082Z,1.63
2018-09-28T16:50:54.774Z,1.90
2018-09-28T16:55:47.429Z,2.03
2018-09-28T17:00:40.119Z,2.10
2018-09-28T17:05:32.957Z,2.40
2018-09-28T17:10:26.073Z,2.37
2018-09-28T17:15:18.908Z,2.60
2018-09-28T17:20:11.559Z,2.27
2018-09-28T17:25:04.221Z,1.80
2018-09-28T17:29:57.066Z,2.00
2018-09-28T17:34:49.775Z,1.80
2018-09-28T17:39:42.451Z,2.30
2018-09-28T17:44:35.089Z,2.40
2018-09-28T17:49:27.744Z,4.00
2018-09-28T17:54:20.407Z,3.50
2018-09-28T17:59:13.005Z,2.70
2018-09-28T18:04:05.737Z,2.20
2018-09-28T18:08:58.410Z,2.80
2018-09-28T18:13:51.048Z,3.33
2018-09-28T18:18:43.774Z,2.47
2018-09-28T18:23:36.470Z,3.50
2018-09-28T18:28:29.135Z,2.47
2018-09-28T18:33:21.897Z,2.97
2018-09-28T18:38:14.501Z,2.60
2018-09-28T18:43:07.122Z,2.40
2018-09-28T18:47:59.810Z,2.57
2018-09-28T18:52:52.458Z,2.20
2018-09-28T18:57:45.134Z,2.50
2018-09-28T19:02:37.882Z,2.47
2018-09-28T19:07:31.103Z,2.53
2018-09-28T19:12:23.704Z,2.37
2018-09-28T19:17:16.317Z,2.30
2018-09-28T19:22:09.047Z,2.80
2018-09-28T19:27:01.690Z,2.40
2018-09-28T19:39:11.352Z,2.83
2018-09-28T19:44:04.095Z,3.20
2018-09-28T19:48:56.797Z,3.70
2018-09-28T19:53:49.458Z,3.87
2018-09-28T19:58:42.198Z,3.50
2018-09-28T20:03:34.891Z,3.13
2018-09-28T20:08:27.543Z,4.83
2018-09-28T20:13:20.307Z,5.07
2018-09-28T20:18:12.909Z,5.57
2018-09-28T20:23:05.947Z,4.90
2018-09-28T20:27:58.988Z,3.83
2018-09-28T20:32:52.220Z,4.23
2018-09-28T20:37:45.085Z,4.37
2018-09-28T20:42:38.263Z,3.93
2018-09-28T20:47:31.378Z,3.80
2018-09-28T20:52:24.488Z,4.97
2018-09-28T20:57:17.458Z,4.70
2018-09-28T21:02:10.193Z,5.20
2018-09-28T21:07:02.861Z,5.67
2018-09-28T21:11:55.722Z,4.30
2018-09-28T21:16:48.694Z,3.90
2018-09-28T21:21:41.768Z,4.43
2018-09-28T21:26:35.365Z,4.20
2018-09-28T21:31:28.229Z,3.93
2018-09-28T21:36:21.140Z,4.13
2018-09-28T21:41:14.181Z,3.47
2018-09-28T21:46:07.098Z,3.43
2018-09-28T21:50:59.847Z,2.90
2018-09-28T21:55:52.470Z,2.50
2018-09-28T22:00:46.910Z,2.60
2018-09-28T22:05:39.521Z,2.60
2018-09-28T22:10:32.694Z,2.80
2018-09-28T22:15:25.306Z,3.00
2018-09-28T22:20:17.970Z,3.13
2018-09-28T22:25:10.619Z,3.40
2018-09-28T22:30:03.240Z,3.90
2018-09-28T22:34:55.880Z,3.97
2018-09-28T22:39:48.473Z,3.50
2018-09-28T22:44:41.049Z,3.20
2018-09-28T22:49:33.674Z,3.27
2018-09-28T22:54:26.306Z,2.80
2018-09-28T22:59:19.199Z,2.80
2018-09-28T23:04:11.819Z,2.87
2018-09-28T23:09:05.891Z,2.70
2018-09-28T23:13:58.494Z,2.77
2018-09-28T23:18:51.110Z,2.37
2018-09-28T23:23:43.714Z,2.87
2018-09-28T23:28:36.386Z,2.50
2018-09-28T23:33:29.038Z,2.73
2018-09-28T23:38:21.590Z,2.70
2018-09-28T23:43:14.178Z,2.70
2018-09-28T23:48:06.806Z,3.07
2018-09-28T23:52:59.437Z,3.17
2018-09-28T23:57:52.046Z,3.10
